sensor_id;sensor_type;location;lat;lon;timestamp;P1;durP1;ratioP1;P2;durP2;ratioP2
14756;SDS011;62446;53.214;10.398;2022-11-20T15:20:39;1.43;;;1.30;;
14756;SDS011;62446;53.214;10.398;2022-11-20T15:23:44;1.07;;;1.07;;
14756;SDS011;62446;53.214;10.398;2022-11-20T15:26:48;1.73;;;1.63;;
14756;SDS011;62446;53.214;10.398;2022-11-20T15:29:52;2.23;;;2.03;;
14756;SDS011;62446;53.214;10.398;2022-11-20T15:32:56;1.60;;;1.50;;
14756;SDS011;62446;53.214;10.398;2022-11-20T15:36:01;2.17;;;1.97;;
14756;SDS011;62446;53.214;10.398;2022-11-20T15:39:05;5.70;;;2.93;;
14756;SDS011;62446;53.214;10.398;2022-11-20T15:42:10;2.97;;;2.60;;
14756;SDS011;62446;53.214;10.398;2022-11-20T15:45:13;2.50;;;2.30;;
14756;SDS011;62446;53.214;10.398;2022-11-20T15:48:18;3.03;;;2.33;;
14756;SDS011;62446;53.214;10.398;2022-11-20T15:51:26;3.57;;;1.97;;
14756;SDS011;62446;53.214;10.398;2022-11-20T15:54:32;2.63;;;2.10;;
14756;SDS011;62446;53.214;10.398;2022-11-20T15:57:35;3.17;;;1.83;;
14756;SDS011;62446;53.214;10.398;2022-11-20T16:00:39;2.83;;;2.17;;
14756;SDS011;62446;53.214;10.398;2022-11-20T16:03:42;3.30;;;2.17;;
14756;SDS011;62446;53.214;10.398;2022-11-20T16:06:47;2.07;;;1.87;;
14756;SDS011;62446;53.214;10.398;2022-11-20T16:09:51;2.30;;;2.10;;
14756;SDS011;62446;53.214;10.398;2022-11-20T16:12:56;2.33;;;2.13;;
14756;SDS011;62446;53.214;10.398;2022-11-20T16:16:19;2.53;;;2.23;;
14756;SDS011;62446;53.214;10.398;2022-11-20T16:19:24;1.93;;;1.70;;
14756;SDS011;62446;53.214;10.398;2022-11-20T16:22:29;2.23;;;1.90;;
14756;SDS011;62446;53.214;10.398;2022-11-20T16:25:33;3.53;;;1.67;;
14756;SDS011;62446;53.214;10.398;2022-11-20T16:28:37;2.10;;;1.90;;
14756;SDS011;62446;53.214;10.398;2022-11-20T16:31:40;2.23;;;1.97;;
14756;SDS011;62446;53.214;10.398;2022-11-20T16:34:44;1.90;;;1.80;;
14756;SDS011;62446;53.214;10.398;2022-11-20T16:37:49;1.73;;;1.60;;
14756;SDS011;62446;53.214;10.398;2022-11-20T16:40:53;3.43;;;2.67;;
14756;SDS011;62446;53.214;10.398;2022-11-20T16:44:05;4.97;;;2.90;;
14756;SDS011;62446;53.214;10.398;2022-11-20T16:47:11;3.73;;;2.47;;
14756;SDS011;62446;53.214;10.398;2022-11-20T16:50:15;4.87;;;3.00;;
14756;SDS011;62446;53.214;10.398;2022-11-20T16:53:20;4.57;;;2.47;;
14756;SDS011;62446;53.214;10.398;2022-11-20T16:56:25;3.67;;;3.00;;
14756;SDS011;62446;53.214;10.398;2022-11-20T16:59:29;3.03;;;2.77;;
14756;SDS011;62446;53.214;10.398;2022-11-20T17:02:33;4.17;;;2.83;;
14756;SDS011;62446;53.214;10.398;2022-11-20T17:05:38;4.17;;;2.93;;
14756;SDS011;62446;53.214;10.398;2022-11-20T17:08:44;3.20;;;2.90;;
14756;SDS011;62446;53.214;10.398;2022-11-20T17:11:47;3.47;;;2.80;;
14756;SDS011;62446;53.214;10.398;2022-11-20T17:14:51;2.77;;;2.57;;
14756;SDS011;62446;53.214;10.398;2022-11-20T17:17:55;3.10;;;2.77;;
14756;SDS011;62446;53.214;10.398;2022-11-20T17:20:59;2.63;;;2.07;;
14756;SDS011;62446;53.214;10.398;2022-11-20T17:24:08;2.87;;;2.53;;
14756;SDS011;62446;53.214;10.398;2022-11-20T17:27:12;4.10;;;3.23;;
14756;SDS011;62446;53.214;10.398;2022-11-20T17:30:16;7.10;;;3.27;;
14756;SDS011;62446;53.214;10.398;2022-11-20T17:33:20;4.97;;;3.70;;
14756;SDS011;62446;53.214;10.398;2022-11-20T17:36:23;3.93;;;3.43;;
14756;SDS011;62446;53.214;10.398;2022-11-20T17:39:29;5.87;;;4.33;;
14756;SDS011;62446;53.214;10.398;2022-11-20T17:42:32;5.30;;;2.90;;
14756;SDS011;62446;53.214;10.398;2022-11-20T17:45:38;4.40;;;3.90;;
14756;SDS011;62446;53.214;10.398;2022-11-20T17:48:41;4.90;;;2.83;;
14756;SDS011;62446;53.214;10.398;2022-11-20T17:51:46;5.20;;;4.00;;
14756;SDS011;62446;53.214;10.398;2022-11-20T17:54:51;4.90;;;3.20;;
14756;SDS011;62446;53.214;10.398;2022-11-20T17:57:57;4.30;;;3.40;;
14756;SDS011;62446;53.214;10.398;2022-11-20T18:01:04;5.73;;;3.67;;
14756;SDS011;62446;53.214;10.398;2022-11-20T18:04:08;5.83;;;3.67;;
14756;SDS011;62446;53.214;10.398;2022-11-20T18:07:12;5.90;;;3.73;;
14756;SDS011;62446;53.214;10.398;2022-11-20T18:10:17;5.93;;;3.43;;
14756;SDS011;62446;53.214;10.398;2022-11-20T18:13:21;6.33;;;4.80;;
14756;SDS011;62446;53.214;10.398;2022-11-20T18:16:50;5.23;;;3.63;;
14756;SDS011;62446;53.214;10.398;2022-11-20T18:19:54;6.10;;;3.40;;
14756;SDS011;62446;53.214;10.398;2022-11-20T18:23:18;5.40;;;3.97;;
14756;SDS011;62446;53.214;10.398;2022-11-20T18:26:23;4.20;;;3.43;;
14756;SDS011;62446;53.214;10.398;2022-11-20T18:29:27;8.03;;;4.40;;
14756;SDS011;62446;53.214;10.398;2022-11-20T18:32:33;7.33;;;4.27;;
14756;SDS011;62446;53.214;10.398;2022-11-20T18:35:37;8.97;;;4.77;;
14756;SDS011;62446;53.214;10.398;2022-11-20T18:38:44;5.70;;;3.70;;
14756;SDS011;62446;53.214;10.398;2022-11-20T18:41:50;5.07;;;4.17;;
14756;SDS011;62446;53.214;10.398;2022-11-20T18:45:11;6.77;;;5.30;;
14756;SDS011;62446;53.214;10.398;2022-11-20T18:48:15;8.13;;;5.90;;
14756;SDS011;62446;53.214;10.398;2022-11-20T18:51:18;9.57;;;5.37;;
14756;SDS011;62446;53.214;10.398;2022-11-20T18:54:22;7.60;;;6.03;;
14756;SDS011;62446;53.214;10.398;2022-11-20T18:57:28;12.80;;;5.53;;
14756;SDS011;62446;53.214;10.398;2022-11-20T19:00:32;5.57;;;4.50;;
14756;SDS011;62446;53.214;10.398;2022-11-20T19:03:36;9.77;;;5.50;;
14756;SDS011;62446;53.214;10.398;2022-11-20T19:06:40;9.20;;;4.97;;
14756;SDS011;62446;53.214;10.398;2022-11-20T19:09:47;9.03;;;4.70;;
14756;SDS011;62446;53.214;10.398;2022-11-20T19:12:53;5.87;;;4.30;;
14756;SDS011;62446;53.214;10.398;2022-11-20T19:16:00;7.30;;;5.73;;
14756;SDS011;62446;53.214;10.398;2022-11-20T19:19:04;6.33;;;4.40;;
14756;SDS011;62446;53.214;10.398;2022-11-20T19:22:08;5.73;;;4.67;;
14756;SDS011;62446;53.214;10.398;2022-11-20T19:25:12;7.80;;;4.60;;
14756;SDS011;62446;53.214;10.398;2022-11-20T19:28:17;4.57;;;4.03;;
14756;SDS011;62446;53.214;10.398;2022-11-20T19:31:21;6.47;;;4.50;;
14756;SDS011;62446;53.214;10.398;2022-11-20T19:34:27;6.83;;;4.33;;
14756;SDS011;62446;53.214;10.398;2022-11-20T19:37:32;7.07;;;4.13;;
14756;SDS011;62446;53.214;10.398;2022-11-20T19:40:36;8.70;;;4.00;;
14756;SDS011;62446;53.214;10.398;2022-11-20T19:43:41;4.00;;;3.60;;
14756;SDS011;62446;53.214;10.398;2022-11-20T19:46:45;6.47;;;5.80;;
14756;SDS011;62446;53.214;10.398;2022-11-20T19:49:49;9.00;;;5.93;;
14756;SDS011;62446;53.214;10.398;2022-11-20T19:52:52;9.27;;;5.33;;
14756;SDS011;62446;53.214;10.398;2022-11-20T19:56:00;4.90;;;3.87;;
14756;SDS011;62446;53.214;10.398;2022-11-20T19:59:05;6.53;;;4.73;;
14756;SDS011;62446;53.214;10.398;2022-11-20T20:02:09;5.47;;;4.60;;
14756;SDS011;62446;53.214;10.398;2022-11-20T20:05:13;5.73;;;3.73;;
14756;SDS011;62446;53.214;10.398;2022-11-20T20:08:17;4.83;;;3.83;;
14756;SDS011;62446;53.214;10.398;2022-11-20T20:11:21;7.37;;;4.13;;
14756;SDS011;62446;53.214;10.398;2022-11-20T20:14:27;5.80;;;3.57;;
14756;SDS011;62446;53.214;10.398;2022-11-20T20:17:32;5.90;;;4.17;;
14756;SDS011;62446;53.214;10.398;2022-11-20T20:20:35;7.57;;;4.33;;
14756;SDS011;62446;53.214;10.398;2022-11-20T20:23:39;4.17;;;3.43;;
14756;SDS011;62446;53.214;10.398;2022-11-20T20:26:44;4.43;;;3.37;;
14756;SDS011;62446;53.214;10.398;2022-11-20T20:29:49;4.97;;;3.20;;
14756;SDS011;62446;53.214;10.398;2022-11-20T20:32:52;5.80;;;3.47;;
14756;SDS011;62446;53.214;10.398;2022-11-20T20:35:57;6.03;;;3.60;;
14756;SDS011;62446;53.214;10.398;2022-11-20T20:39:01;6.57;;;3.53;;
14756;SDS011;62446;53.214;10.398;2022-11-20T20:42:05;4.33;;;3.70;;
14756;SDS011;62446;53.214;10.398;2022-11-20T20:45:10;3.50;;;3.10;;
14756;SDS011;62446;53.214;10.398;2022-11-20T20:48:14;5.37;;;4.33;;
14756;SDS011;62446;53.214;10.398;2022-11-20T20:51:18;8.83;;;4.67;;
14756;SDS011;62446;53.214;10.398;2022-11-20T20:54:21;8.67;;;4.40;;
14756;SDS011;62446;53.214;10.398;2022-11-20T20:57:25;6.50;;;4.03;;
14756;SDS011;62446;53.214;10.398;2022-11-20T21:00:30;5.20;;;3.47;;
14756;SDS011;62446;53.214;10.398;2022-11-20T21:03:35;12.70;;;7.27;;
14756;SDS011;62446;53.214;10.398;2022-11-20T21:06:39;11.10;;;5.73;;
14756;SDS011;62446;53.214;10.398;2022-11-20T21:09:42;9.33;;;5.23;;
14756;SDS011;62446;53.214;10.398;2022-11-20T21:12:46;5.63;;;4.33;;
14756;SDS011;62446;53.214;10.398;2022-11-20T21:15:51;3.83;;;3.53;;
14756;SDS011;62446;53.214;10.398;2022-11-20T21:18:55;7.73;;;4.07;;
14756;SDS011;62446;53.214;10.398;2022-11-20T21:21:59;5.07;;;2.67;;
14756;SDS011;62446;53.214;10.398;2022-11-20T21:25:04;7.93;;;3.87;;
14756;SDS011;62446;53.214;10.398;2022-11-20T21:28:08;8.27;;;4.27;;
14756;SDS011;62446;53.214;10.398;2022-11-20T21:31:20;4.70;;;4.20;;
14756;SDS011;62446;53.214;10.398;2022-11-20T21:34:26;3.93;;;2.77;;
14756;SDS011;62446;53.214;10.398;2022-11-20T21:37:29;5.97;;;4.00;;
14756;SDS011;62446;53.214;10.398;2022-11-20T21:40:39;6.60;;;3.97;;
14756;SDS011;62446;53.214;10.398;2022-11-20T21:43:42;5.17;;;4.13;;
14756;SDS011;62446;53.214;10.398;2022-11-20T21:46:48;7.80;;;4.17;;
14756;SDS011;62446;53.214;10.398;2022-11-20T21:49:51;8.63;;;4.30;;
14756;SDS011;62446;53.214;10.398;2022-11-20T21:52:55;5.27;;;3.33;;
